Weather at Price Field

Public forecast

Using degrees Fahrenheit for public forecast. Weather courtesy of forecast.io.

Closest aviation weather report (METAR) to Price Field

Closest report is Millington-Memphis Airport, 20.8 nm (38.6 km) ESE. Retrieved 2021/07/24 21:50 UTC (44 minutes ago):

KNQA 242150Z 29004KT 10SM SCT041 SCT055 34/23 A2998

Closest aviation forecast (TAF) to Price Field

Closest forecast is Jonesboro Municipal Airport, 27.5 nm (50.9 km) NW. Retrieved 2021/07/24 18:36 UTC (4 hours ago):

TAF KJBR 241735Z 2418/2518 21006KT P6SM SCT050 FM250100 20003KT P6SM FEW250 FM251600 23005KT P6SM FEW040